Time,TemperatureF,DewpointF,PressureIn,WindDirection,WindDirectionDegrees,WindSpeedMPH,WindSpeedGustMPH,Humidity,HourlyPrecipIn,Conditions,Clouds,dailyrainin,SoftwareType,DateUTC
2013-01-08 00:03:00,20.4,19.0,30.07,East,100,0.0,1.0,94,0.00,,---,0.00,VWS V14.01,2013-01-08 06:03:00,
2013-01-08 00:08:00,20.4,19.0,30.07,East,101,0.0,0.0,94,0.00,,---,0.00,VWS V14.01,2013-01-08 06:08:00,
2013-01-08 00:13:00,20.4,19.2,30.07,East,101,0.0,0.0,95,0.00,,---,0.00,VWS V14.01,2013-01-08 06:13:00,
2013-01-08 00:18:00,20.3,18.9,30.08,East,100,0.0,0.0,94,0.00,,---,0.00,VWS V14.01,2013-01-08 06:18:00,
2013-01-08 00:23:00,20.0,18.5,30.07,East,101,0.0,0.0,94,0.00,,---,0.00,VWS V14.01,2013-01-08 06:23:00,
2013-01-08 00:28:00,19.6,18.2,30.07,East,101,0.0,0.0,94,0.00,,---,0.00,VWS V14.01,2013-01-08 06:28:00,
2013-01-08 00:33:00,19.1,17.4,30.07,East,100,0.0,0.0,93,0.00,,---,0.00,VWS V14.01,2013-01-08 06:33:00,
2013-01-08 00:38:00,18.7,17.0,30.06,East,101,0.0,0.0,93,0.00,,---,0.00,VWS V14.01,2013-01-08 06:38:00,
2013-01-08 00:43:00,18.3,16.6,30.06,East,101,0.0,0.0,93,0.00,,---,0.00,VWS V14.01,2013-01-08 06:43:00,
2013-01-08 00:48:00,18.1,16.4,30.06,ESE,110,0.0,0.0,93,0.00,,---,0.00,VWS V14.01,2013-01-08 06:48:00,
2013-01-08 00:53:00,17.8,16.1,30.06,ESE,111,0.0,0.0,93,0.00,,---,0.00,VWS V14.01,2013-01-08 06:53:00,
2013-01-08 00:58:00,17.6,15.9,30.05,ESE,110,0.0,0.0,93,0.00,,---,0.00,VWS V14.01,2013-01-08 06:58:00,
2013-01-08 01:03:00,17.5,15.8,30.05,ESE,110,0.0,0.0,93,0.00,,---,0.00,VWS V14.01,2013-01-08 07:03:00,
2013-01-08 01:08:00,17.3,15.9,30.05,ESE,111,0.0,0.0,94,0.00,,---,0.00,VWS V14.01,2013-01-08 07:08:00,
2013-01-08 01:13:00,17.2,15.8,30.05,ESE,110,0.0,0.0,94,0.00,,---,0.00,VWS V14.01,2013-01-08 07:13:00,
2013-01-08 01:18:00,17.4,16.0,30.05,ESE,111,0.0,0.0,94,0.00,,---,0.00,VWS V14.01,2013-01-08 07:18:00,
2013-01-08 01:23:00,17.5,16.1,30.06,ESE,110,0.0,0.0,94,0.00,,---,0.00,VWS V14.01,2013-01-08 07:23:00,
2013-01-08 01:28:00,17.6,16.2,30.06,ESE,111,0.0,0.0,94,0.00,,---,0.00,VWS V14.01,2013-01-08 07:28:00,
2013-01-08 01:33:00,17.6,16.2,30.06,ESE,110,0.0,0.0,94,0.00,,---,0.00,VWS V14.01,2013-01-08 07:33:00,
2013-01-08 01:38:00,17.5,16.1,30.06,ESE,111,0.0,0.0,94,0.00,,---,0.00,VWS V14.01,2013-01-08 07:38:00,
2013-01-08 01:43:00,17.4,16.0,30.06,ESE,110,0.0,0.0,94,0.00,,---,0.00,VWS V14.01,2013-01-08 07:43:00,
2013-01-08 01:48:00,17.2,15.8,30.06,ESE,111,0.0,0.0,94,0.00,,---,0.00,VWS V14.01,2013-01-08 07:48:00,
2013-01-08 01:53:00,16.9,15.5,30.05,ESE,110,0.0,0.0,94,0.00,,---,0.00,VWS V14.01,2013-01-08 07:53:00,
2013-01-08 01:58:00,16.8,15.4,30.05,ESE,110,0.0,0.0,94,0.00,,---,0.00,VWS V14.01,2013-01-08 07:58:00,
2013-01-08 02:03:00,17.0,15.6,30.05,ESE,110,0.0,0.0,94,0.00,,---,0.00,VWS V14.01,2013-01-08 08:03:00,
2013-01-08 02:08:00,17.1,15.9,30.05,ESE,111,0.0,0.0,95,0.00,,---,0.00,VWS V14.01,2013-01-08 08:08:00,
2013-01-08 02:13:00,17.2,15.8,30.05,ESE,111,0.0,0.0,94,0.00,,---,0.00,VWS V14.01,2013-01-08 08:13:00,
2013-01-08 02:18:00,17.1,15.7,30.05,ESE,111,1.0,2.0,94,0.00,,---,0.00,VWS V14.01,2013-01-08 08:18:00,
2013-01-08 02:23:00,16.9,15.2,30.04,ESE,110,0.0,2.0,93,0.00,,---,0.00,VWS V14.01,2013-01-08 08:23:00,
2013-01-08 02:28:00,16.5,14.8,30.05,ESE,111,0.0,2.0,93,0.00,,---,0.00,VWS V14.01,2013-01-08 08:28:00,
2013-01-08 02:33:00,16.2,14.5,30.05,ESE,111,0.0,2.0,93,0.00,,---,0.00,VWS V14.01,2013-01-08 08:33:00,
2013-01-08 02:38:00,15.8,13.9,30.05,ESE,110,1.0,1.0,92,0.00,,---,0.00,VWS V14.01,2013-01-08 08:38:00,
2013-01-08 02:43:00,15.5,13.8,30.04,ESE,111,0.0,1.0,93,0.00,,---,0.00,VWS V14.01,2013-01-08 08:43:00,
2013-01-08 02:48:00,15.3,13.6,30.04,ESE,111,0.0,1.0,93,0.00,,---,0.00,VWS V14.01,2013-01-08 08:48:00,
2013-01-08 02:53:00,15.2,13.5,30.04,ESE,110,0.0,1.0,93,0.00,,---,0.00,VWS V14.01,2013-01-08 08:53:00,
2013-01-08 02:58:00,15.1,13.4,30.04,ESE,111,0.0,1.0,93,0.00,,---,0.00,VWS V14.01,2013-01-08 08:58:00,
2013-01-08 03:03:00,15.0,13.3,30.04,ESE,111,0.0,1.0,93,0.00,,---,0.00,VWS V14.01,2013-01-08 09:03:00,
2013-01-08 03:08:00,14.9,13.2,30.03,ESE,111,0.0,0.0,93,0.00,,---,0.00,VWS V14.01,2013-01-08 09:08:00,
2013-01-08 03:13:00,14.8,13.1,30.03,ESE,111,0.0,0.0,93,0.00,,---,0.00,VWS V14.01,2013-01-08 09:13:00,
2013-01-08 03:18:00,14.8,13.1,30.03,ESE,111,0.0,0.0,93,0.00,,---,0.00,VWS V14.01,2013-01-08 09:18:00,
2013-01-08 03:23:00,14.6,12.9,30.03,ESE,111,0.0,0.0,93,0.00,,---,0.00,VWS V14.01,2013-01-08 09:23:00,
2013-01-08 03:28:00,14.5,12.9,30.02,ESE,110,0.0,0.0,93,0.00,,---,0.00,VWS V14.01,2013-01-08 09:28:00,
2013-01-08 03:33:00,14.5,12.9,30.03,ESE,110,0.0,0.0,93,0.00,,---,0.00,VWS V14.01,2013-01-08 09:33:00,
2013-01-08 03:38:00,14.4,12.8,30.02,ESE,111,0.0,0.0,93,0.00,,---,0.00,VWS V14.01,2013-01-08 09:38:00,
2013-01-08 03:42:00,14.3,12.6,30.02,ESE,111,0.0,0.0,93,0.00,,---,0.00,VWS V14.01,2013-01-08 09:42:00,
2013-01-08 03:47:00,14.3,12.6,30.02,ESE,110,0.0,0.0,93,0.00,,---,0.00,VWS V14.01,2013-01-08 09:47:00,
2013-01-08 03:52:00,14.4,12.8,30.02,ESE,110,0.0,0.0,93,0.00,,---,0.00,VWS V14.01,2013-01-08 09:52:00,
2013-01-08 03:57:00,14.5,12.9,30.02,ESE,110,0.0,0.0,93,0.00,,---,0.00,VWS V14.01,2013-01-08 09:57:00,
2013-01-08 04:02:00,14.5,12.9,30.02,ESE,110,0.0,0.0,93,0.00,,---,0.00,VWS V14.01,2013-01-08 10:02:00,
2013-01-08 04:07:00,14.5,12.9,30.02,ESE,110,0.0,0.0,93,0.00,,---,0.00,VWS V14.01,2013-01-08 10:07:00,
2013-01-08 04:12:00,14.4,12.8,30.02,ESE,116,0.0,0.0,93,0.00,,---,0.00,VWS V14.01,2013-01-08 10:12:00,
2013-01-08 04:17:00,14.4,12.5,30.02,ESE,116,0.0,0.0,92,0.00,,---,0.00,VWS V14.01,2013-01-08 10:17:00,
2013-01-08 04:22:00,14.4,12.5,30.02,ESE,116,0.0,0.0,92,0.00,,---,0.00,VWS V14.01,2013-01-08 10:22:00,
2013-01-08 04:27:00,14.5,12.9,30.02,ESE,116,0.0,0.0,93,0.00,,---,0.00,VWS V14.01,2013-01-08 10:27:00,
2013-01-08 04:32:00,14.5,12.9,30.02,ESE,116,0.0,0.0,93,0.00,,---,0.00,VWS V14.01,2013-01-08 10:32:00,
2013-01-08 04:37:00,14.4,12.5,30.01,ESE,122,0.0,0.0,92,0.00,,---,0.00,VWS V14.01,2013-01-08 10:37:00,
2013-01-08 04:42:00,14.2,12.3,30.01,ESE,122,0.0,0.0,92,0.00,,---,0.00,VWS V14.01,2013-01-08 10:42:00,
2013-01-08 04:47:00,14.0,12.1,30.01,SE,142,0.0,0.0,92,0.00,,---,0.00,VWS V14.01,2013-01-08 10:47:00,
2013-01-08 04:52:00,13.8,11.9,30.01,SE,143,0.0,0.0,92,0.00,,---,0.00,VWS V14.01,2013-01-08 10:52:00,
2013-01-08 04:57:00,13.6,11.7,30.01,SE,143,0.0,0.0,92,0.00,,---,0.00,VWS V14.01,2013-01-08 10:57:00,
2013-01-08 05:02:00,13.4,11.5,30.01,SE,142,0.0,0.0,92,0.00,,---,0.00,VWS V14.01,2013-01-08 11:02:00,
2013-01-08 05:07:00,13.4,11.5,30.00,SE,143,0.0,0.0,92,0.00,,---,0.00,VWS V14.01,2013-01-08 11:07:00,
2013-01-08 05:12:00,13.5,11.6,30.00,SE,143,0.0,0.0,92,0.00,,---,0.00,VWS V14.01,2013-01-08 11:12:00,
2013-01-08 05:17:00,13.5,11.6,29.99,SE,126,0.0,0.0,92,0.00,,---,0.00,VWS V14.01,2013-01-08 11:17:00,
2013-01-08 05:22:00,13.4,11.5,30.00,SE,126,0.0,0.0,92,0.00,,---,0.00,VWS V14.01,2013-01-08 11:22:00,
2013-01-08 05:27:00,13.3,11.4,30.00,SE,125,0.0,0.0,92,0.00,,---,0.00,VWS V14.01,2013-01-08 11:27:00,
2013-01-08 05:32:00,13.2,11.3,30.01,SE,137,0.0,0.0,92,0.00,,---,0.00,VWS V14.01,2013-01-08 11:32:00,
2013-01-08 05:37:00,13.0,11.1,30.01,SE,141,0.0,0.0,92,0.00,,---,0.00,VWS V14.01,2013-01-08 11:37:00,
2013-01-08 05:42:00,13.0,11.1,30.01,East,91,0.0,0.0,92,0.00,,---,0.00,VWS V14.01,2013-01-08 11:42:00,
2013-01-08 05:47:00,13.1,11.2,30.01,SE,129,0.0,0.0,92,0.00,,---,0.00,VWS V14.01,2013-01-08 11:47:00,
2013-01-08 05:52:00,13.0,11.1,30.01,SE,134,0.0,1.0,92,0.00,,---,0.00,VWS V14.01,2013-01-08 11:52:00,
2013-01-08 05:57:00,12.8,10.7,30.00,SSE,148,0.0,1.0,91,0.00,,---,0.00,VWS V14.01,2013-01-08 11:57:00,
2013-01-08 06:02:00,12.7,10.6,30.00,SE,135,0.0,1.0,91,0.00,,---,0.00,VWS V14.01,2013-01-08 12:02:00,
2013-01-08 06:07:00,12.7,10.8,30.00,SE,134,0.0,0.0,92,0.00,,---,0.00,VWS V14.01,2013-01-08 12:07:00,
2013-01-08 06:12:00,12.7,10.8,30.00,SE,134,0.0,0.0,92,0.00,,---,0.00,VWS V14.01,2013-01-08 12:12:00,
2013-01-08 06:17:00,12.7,10.8,30.00,East,98,0.0,0.0,92,0.00,,---,0.00,VWS V14.01,2013-01-08 12:17:00,
2013-01-08 06:22:00,12.8,10.9,30.00,East,94,0.0,0.0,92,0.00,,---,0.00,VWS V14.01,2013-01-08 12:22:00,
2013-01-08 06:27:00,13.0,11.1,30.00,East,97,0.0,0.0,92,0.00,,---,0.00,VWS V14.01,2013-01-08 12:27:00,
2013-01-08 06:32:00,13.3,11.7,30.00,East,85,0.0,0.0,93,0.00,,---,0.00,VWS V14.01,2013-01-08 12:32:00,
2013-01-08 06:37:00,13.3,11.4,30.00,ESE,104,0.0,3.0,92,0.00,,---,0.00,VWS V14.01,2013-01-08 12:37:00,
2013-01-08 06:42:00,13.2,11.3,30.00,ENE,78,3.0,3.0,92,0.00,,---,0.00,VWS V14.01,2013-01-08 12:42:00,
2013-01-08 06:47:00,13.1,11.2,30.00,East,96,2.0,3.0,92,0.00,,---,0.00,VWS V14.01,2013-01-08 12:47:00,
2013-01-08 06:52:00,13.3,11.4,30.00,East,83,2.0,4.0,92,0.00,,---,0.00,VWS V14.01,2013-01-08 12:52:00,
2013-01-08 06:57:00,13.5,11.6,30.00,East,84,3.0,4.0,92,0.00,,---,0.00,VWS V14.01,2013-01-08 12:57:00,
2013-01-08 07:02:00,13.5,11.6,30.00,East,85,2.0,4.0,92,0.00,,---,0.00,VWS V14.01,2013-01-08 13:02:00,
2013-01-08 07:07:00,13.4,11.5,30.01,East,101,0.0,3.0,92,0.00,,---,0.00,VWS V14.01,2013-01-08 13:07:00,
2013-01-08 07:12:00,13.3,11.4,30.01,East,101,0.0,3.0,92,0.00,,---,0.00,VWS V14.01,2013-01-08 13:12:00,
2013-01-08 07:17:00,13.3,11.4,30.01,East,101,1.0,3.0,92,0.00,,---,0.00,VWS V14.01,2013-01-08 13:17:00,
2013-01-08 07:22:00,13.4,11.5,30.02,SE,128,1.0,6.0,92,0.00,,---,0.00,VWS V14.01,2013-01-08 13:22:00,
2013-01-08 07:27:00,13.3,11.4,30.02,SE,124,0.0,6.0,92,0.00,,---,0.00,VWS V14.01,2013-01-08 13:27:00,
2013-01-08 07:32:00,13.3,11.4,30.02,ESE,119,2.0,6.0,92,0.00,,---,0.00,VWS V14.01,2013-01-08 13:32:00,
2013-01-08 07:37:00,13.2,11.3,30.02,ESE,121,0.0,2.0,92,0.00,,---,0.00,VWS V14.01,2013-01-08 13:37:00,
2013-01-08 07:42:00,13.1,11.2,30.02,ESE,111,0.0,3.0,92,0.00,,---,0.00,VWS V14.01,2013-01-08 13:42:00,
2013-01-08 07:47:00,13.1,11.2,30.03,ESE,109,1.0,3.0,92,0.00,,---,0.00,VWS V14.01,2013-01-08 13:47:00,
2013-01-08 07:52:00,13.1,11.2,30.03,ESE,105,1.0,3.0,92,0.00,,---,0.00,VWS V14.01,2013-01-08 13:52:00,
2013-01-08 07:57:00,13.1,11.2,30.02,ESE,123,0.0,3.0,92,0.00,,---,0.00,VWS V14.01,2013-01-08 13:57:00,
2013-01-08 08:02:00,13.3,11.4,30.02,ESE,121,4.0,5.0,92,0.00,,---,0.00,VWS V14.01,2013-01-08 14:02:00,
2013-01-08 08:07:00,13.6,12.0,30.03,SSE,149,3.0,5.0,93,0.00,,---,0.00,VWS V14.01,2013-01-08 14:07:00,
2013-01-08 08:12:00,13.9,12.0,30.03,SE,135,2.0,6.0,92,0.00,,---,0.00,VWS V14.01,2013-01-08 14:12:00,
2013-01-08 08:17:00,13.7,11.8,30.03,SE,137,1.0,6.0,92,0.00,,---,0.00,VWS V14.01,2013-01-08 14:17:00,
2013-01-08 08:22:00,13.7,11.8,30.02,SE,142,1.0,6.0,92,0.00,,---,0.00,VWS V14.01,2013-01-08 14:22:00,
2013-01-08 08:27:00,14.1,12.4,30.02,SE,125,0.0,6.0,93,0.00,,---,0.00,VWS V14.01,2013-01-08 14:27:00,
2013-01-08 08:32:00,14.4,12.8,30.02,East,96,1.0,6.0,93,0.00,,---,0.00,VWS V14.01,2013-01-08 14:32:00,
2013-01-08 08:37:00,14.5,12.6,30.03,ESE,113,0.0,1.0,92,0.00,,---,0.00,VWS V14.01,2013-01-08 14:37:00,
2013-01-08 08:42:00,14.8,12.9,30.03,ESE,120,0.0,1.0,92,0.00,,---,0.00,VWS V14.01,2013-01-08 14:42:00,
2013-01-08 08:47:00,14.9,13.0,30.03,ESE,120,0.0,1.0,92,0.00,,---,0.00,VWS V14.01,2013-01-08 14:47:00,
2013-01-08 08:52:00,15.2,13.3,30.03,SE,132,0.0,1.0,92,0.00,,---,0.00,VWS V14.01,2013-01-08 14:52:00,
2013-01-08 08:57:00,15.6,13.9,30.04,SE,135,0.0,1.0,93,0.00,,---,0.00,VWS V14.01,2013-01-08 14:57:00,
2013-01-08 09:02:00,15.9,14.2,30.04,ESE,119,2.0,3.0,93,0.00,,---,0.00,VWS V14.01,2013-01-08 15:02:00,
2013-01-08 09:07:00,16.1,14.4,30.04,ESE,106,0.0,2.0,93,0.00,,---,0.00,VWS V14.01,2013-01-08 15:07:00,
2013-01-08 09:12:00,16.5,14.8,30.04,SE,128,1.0,2.0,93,0.00,,---,0.00,VWS V14.01,2013-01-08 15:12:00,
2013-01-08 09:17:00,17.1,15.4,30.03,ESE,118,0.0,2.0,93,0.00,,---,0.00,VWS V14.01,2013-01-08 15:17:00,
2013-01-08 09:22:00,18.2,16.8,30.03,East,84,2.0,3.0,94,0.00,,---,0.00,VWS V14.01,2013-01-08 15:22:00,
2013-01-08 09:27:00,19.0,17.6,30.03,East,85,0.0,5.0,94,0.00,,---,0.00,VWS V14.01,2013-01-08 15:27:00,
2013-01-08 09:32:00,19.7,18.3,30.03,East,101,1.0,5.0,94,0.00,,---,0.00,VWS V14.01,2013-01-08 15:32:00,
2013-01-08 09:37:00,20.2,18.8,30.04,ESE,112,0.0,2.0,94,0.00,,---,0.00,VWS V14.01,2013-01-08 15:37:00,
2013-01-08 09:42:00,21.1,19.6,30.03,ESE,114,2.0,4.0,94,0.00,,---,0.00,VWS V14.01,2013-01-08 15:42:00,
2013-01-08 09:47:00,21.1,19.4,30.03,East,91,1.0,5.0,93,0.00,,---,0.00,VWS V14.01,2013-01-08 15:47:00,
2013-01-08 09:52:00,21.1,19.1,30.03,East,92,1.0,5.0,92,0.00,,---,0.00,VWS V14.01,2013-01-08 15:52:00,
2013-01-08 09:57:00,21.4,19.7,30.03,ENE,75,1.0,5.0,93,0.00,,---,0.00,VWS V14.01,2013-01-08 15:57:00,
2013-01-08 10:02:00,21.6,19.9,30.03,ENE,73,2.0,5.0,93,0.00,,---,0.00,VWS V14.01,2013-01-08 16:02:00,
2013-01-08 10:07:00,21.7,20.0,30.03,East,88,2.0,5.0,93,0.00,,---,0.00,VWS V14.01,2013-01-08 16:07:00,
2013-01-08 10:12:00,21.8,20.1,30.03,East,84,2.0,5.0,93,0.00,,---,0.00,VWS V14.01,2013-01-08 16:12:00,
2013-01-08 10:17:00,22.0,20.3,30.03,East,92,2.0,5.0,93,0.00,,---,0.00,VWS V14.01,2013-01-08 16:17:00,
2013-01-08 10:22:00,22.3,20.6,30.03,ESE,109,2.0,5.0,93,0.00,,---,0.00,VWS V14.01,2013-01-08 16:22:00,
2013-01-08 10:27:00,22.9,21.4,30.04,SE,128,1.0,6.0,94,0.00,,---,0.00,VWS V14.01,2013-01-08 16:27:00,
2013-01-08 10:32:00,23.6,22.1,30.04,ESE,109,2.0,6.0,94,0.00,,---,0.00,VWS V14.01,2013-01-08 16:32:00,
2013-01-08 10:37:00,24.0,22.5,30.04,SE,132,2.0,6.0,94,0.00,,---,0.00,VWS V14.01,2013-01-08 16:37:00,
2013-01-08 10:42:00,24.7,23.2,30.04,ESE,103,2.0,6.0,94,0.00,,---,0.00,VWS V14.01,2013-01-08 16:42:00,
2013-01-08 10:47:00,25.4,23.9,30.04,ESE,111,2.0,6.0,94,0.00,,---,0.00,VWS V14.01,2013-01-08 16:47:00,
2013-01-08 10:52:00,25.9,24.4,30.04,ESE,113,1.0,6.0,94,0.00,,---,0.00,VWS V14.01,2013-01-08 16:52:00,
2013-01-08 10:57:00,26.2,24.7,30.03,East,98,2.0,6.0,94,0.00,,---,0.00,VWS V14.01,2013-01-08 16:57:00,
2013-01-08 11:02:00,26.6,25.1,30.03,ESE,103,2.0,6.0,94,0.00,,---,0.00,VWS V14.01,2013-01-08 17:02:00,
2013-01-08 11:07:00,26.9,25.4,30.03,ENE,78,5.0,6.0,94,0.00,,---,0.00,VWS V14.01,2013-01-08 17:07:00,
2013-01-08 11:12:00,27.1,25.6,30.03,ESE,113,2.0,7.0,94,0.00,,---,0.00,VWS V14.01,2013-01-08 17:12:00,
2013-01-08 11:17:00,27.3,25.5,30.03,ESE,105,3.0,8.0,93,0.00,,---,0.00,VWS V14.01,2013-01-08 17:17:00,
2013-01-08 11:22:00,27.5,25.8,30.03,ESE,111,1.0,8.0,93,0.00,,---,0.00,VWS V14.01,2013-01-08 17:22:00,
2013-01-08 11:27:00,27.8,26.0,30.03,SE,136,4.0,9.0,93,0.00,,---,0.00,VWS V14.01,2013-01-08 17:27:00,
2013-01-08 11:32:00,28.1,25.5,30.03,ESE,118,6.0,9.0,90,0.00,,---,0.00,VWS V14.01,2013-01-08 17:32:00,
2013-01-08 11:37:00,28.4,25.0,30.02,SE,125,4.0,7.0,87,0.00,,---,0.00,VWS V14.01,2013-01-08 17:37:00,
2013-01-08 11:42:00,28.8,25.1,30.02,East,101,4.0,7.0,86,0.00,,---,0.00,VWS V14.01,2013-01-08 17:42:00,
2013-01-08 11:47:00,29.3,25.4,30.02,ESE,112,2.0,7.0,85,0.00,,---,0.00,VWS V14.01,2013-01-08 17:47:00,
2013-01-08 11:52:00,29.7,25.2,30.02,SE,127,3.0,9.0,83,0.00,,---,0.00,VWS V14.01,2013-01-08 17:52:00,
2013-01-08 11:57:00,30.1,25.6,30.01,ESE,116,3.0,9.0,83,0.00,,---,0.00,VWS V14.01,2013-01-08 17:57:00,
2013-01-08 12:02:00,30.8,26.0,30.01,East,96,2.0,9.0,82,0.00,,---,0.00,VWS V14.01,2013-01-08 18:02:00,
2013-01-08 12:07:00,31.6,26.5,30.01,ESE,104,3.0,6.0,81,0.00,,---,0.00,VWS V14.01,2013-01-08 18:07:00,
2013-01-08 12:12:00,32.3,26.5,30.01,ESE,103,3.0,7.0,79,0.00,,---,0.00,VWS V14.01,2013-01-08 18:12:00,
2013-01-08 12:17:00,32.7,26.6,30.01,ESE,116,2.0,8.0,78,0.00,,---,0.00,VWS V14.01,2013-01-08 18:17:00,
2013-01-08 12:22:00,33.4,27.3,30.02,ESE,114,4.0,8.0,78,0.00,,---,0.00,VWS V14.01,2013-01-08 18:22:00,
2013-01-08 12:27:00,34.1,27.3,30.02,ESE,116,5.0,9.0,76,0.00,,---,0.00,VWS V14.01,2013-01-08 18:27:00,
2013-01-08 12:32:00,34.4,27.6,30.02,ESE,112,3.0,9.0,76,0.00,,---,0.00,VWS V14.01,2013-01-08 18:32:00,
2013-01-08 12:37:00,35.0,28.2,30.01,ESE,123,6.0,10.0,76,0.00,,---,0.00,VWS V14.01,2013-01-08 18:37:00,
2013-01-08 12:42:00,35.3,28.2,30.01,ESE,117,3.0,10.0,75,0.00,,---,0.00,VWS V14.01,2013-01-08 18:42:00,
2013-01-08 12:47:00,35.6,28.1,30.01,ESE,120,3.0,10.0,74,0.00,,---,0.00,VWS V14.01,2013-01-08 18:47:00,
2013-01-08 12:52:00,35.9,28.4,30.01,ESE,113,2.0,10.0,74,0.00,,---,0.00,VWS V14.01,2013-01-08 18:52:00,
2013-01-08 12:57:00,35.7,28.2,30.01,ESE,117,4.0,10.0,74,0.00,,---,0.00,VWS V14.01,2013-01-08 18:57:00,
2013-01-08 13:02:00,35.8,28.3,30.01,ESE,114,4.0,10.0,74,0.00,,---,0.00,VWS V14.01,2013-01-08 19:02:00,
2013-01-08 13:07:00,35.9,28.4,30.01,ESE,117,5.0,8.0,74,0.00,,---,0.00,VWS V14.01,2013-01-08 19:07:00,
2013-01-08 13:12:00,36.1,29.0,30.01,East,92,5.0,8.0,75,0.00,,---,0.00,VWS V14.01,2013-01-08 19:12:00,
2013-01-08 13:17:00,36.4,29.2,30.02,ESE,116,2.0,8.0,75,0.00,,---,0.00,VWS V14.01,2013-01-08 19:17:00,
2013-01-08 13:22:00,36.8,29.3,30.02,ESE,123,3.0,8.0,74,0.00,,---,0.00,VWS V14.01,2013-01-08 19:22:00,
2013-01-08 13:27:00,37.1,29.6,30.02,ESE,103,3.0,8.0,74,0.00,,---,0.00,VWS V14.01,2013-01-08 19:27:00,
2013-01-08 13:32:00,37.6,30.1,30.02,ESE,112,1.0,8.0,74,0.00,,---,0.00,VWS V14.01,2013-01-08 19:32:00,
2013-01-08 13:37:00,38.0,30.1,30.02,ESE,117,5.0,7.0,73,0.00,,---,0.00,VWS V14.01,2013-01-08 19:37:00,
2013-01-08 13:42:00,38.3,30.4,30.02,ESE,118,1.0,7.0,73,0.00,,---,0.00,VWS V14.01,2013-01-08 19:42:00,
2013-01-08 13:47:00,38.7,30.8,30.02,ESE,119,3.0,7.0,73,0.00,,---,0.00,VWS V14.01,2013-01-08 19:47:00,
2013-01-08 13:52:00,39.2,31.0,30.03,ESE,123,3.0,7.0,72,0.00,,---,0.00,VWS V14.01,2013-01-08 19:52:00,
2013-01-08 13:57:00,39.8,31.2,30.03,ESE,117,1.0,7.0,71,0.00,,---,0.00,VWS V14.01,2013-01-08 19:57:00,
2013-01-08 14:02:00,40.3,31.3,30.03,ESE,120,1.0,7.0,70,0.00,,---,0.00,VWS V14.01,2013-01-08 20:02:00,
2013-01-08 14:07:00,40.5,31.5,30.03,ESE,117,2.0,5.0,70,0.00,,---,0.00,VWS V14.01,2013-01-08 20:07:00,
2013-01-08 14:12:00,40.6,31.2,30.03,ESE,123,1.0,5.0,69,0.00,,---,0.00,VWS V14.01,2013-01-08 20:12:00,
2013-01-08 14:17:00,40.6,31.6,30.03,ESE,108,2.0,5.0,70,0.00,,---,0.00,VWS V14.01,2013-01-08 20:17:00,
2013-01-08 14:22:00,40.5,31.1,30.04,ESE,114,5.0,6.0,69,0.00,,---,0.00,VWS V14.01,2013-01-08 20:22:00,
2013-01-08 14:27:00,40.1,31.1,30.04,SE,130,3.0,6.0,70,0.00,,---,0.00,VWS V14.01,2013-01-08 20:27:00,
2013-01-08 14:32:00,39.9,31.3,30.04,SE,124,3.0,8.0,71,0.00,,---,0.00,VWS V14.01,2013-01-08 20:32:00,
2013-01-08 14:37:00,39.9,31.6,30.05,ESE,122,3.0,4.0,72,0.00,,---,0.00,VWS V14.01,2013-01-08 20:37:00,
2013-01-08 14:42:00,40.2,31.9,30.05,ESE,120,2.0,4.0,72,0.00,,---,0.00,VWS V14.01,2013-01-08 20:42:00,
2013-01-08 14:47:00,40.2,31.9,30.06,ESE,120,1.0,5.0,72,0.00,,---,0.00,VWS V14.01,2013-01-08 20:47:00,
2013-01-08 14:52:00,40.4,32.1,30.06,ESE,120,0.0,5.0,72,0.00,,---,0.00,VWS V14.01,2013-01-08 20:52:00,
2013-01-08 14:57:00,40.4,32.1,30.06,ESE,113,1.0,5.0,72,0.00,,---,0.00,VWS V14.01,2013-01-08 20:57:00,
2013-01-08 15:02:00,40.1,31.8,30.07,ESE,120,2.0,5.0,72,0.00,,---,0.00,VWS V14.01,2013-01-08 21:02:00,
2013-01-08 15:07:00,40.0,32.1,30.07,ESE,108,1.0,3.0,73,0.00,,---,0.00,VWS V14.01,2013-01-08 21:07:00,
2013-01-08 15:12:00,40.0,32.1,30.07,ESE,120,2.0,4.0,73,0.00,,---,0.00,VWS V14.01,2013-01-08 21:12:00,
2013-01-08 15:17:00,40.0,32.1,30.08,ESE,116,1.0,4.0,73,0.00,,---,0.00,VWS V14.01,2013-01-08 21:17:00,
2013-01-08 15:22:00,40.2,32.2,30.08,ESE,111,2.0,5.0,73,0.00,,---,0.00,VWS V14.01,2013-01-08 21:22:00,
2013-01-08 15:27:00,40.3,32.3,30.08,East,99,4.0,5.0,73,0.00,,---,0.00,VWS V14.01,2013-01-08 21:27:00,
2013-01-08 15:32:00,40.3,32.0,30.09,ESE,104,3.0,8.0,72,0.00,,---,0.00,VWS V14.01,2013-01-08 21:32:00,
2013-01-08 15:37:00,40.1,31.8,30.09,ESE,113,2.0,3.0,72,0.00,,---,0.00,VWS V14.01,2013-01-08 21:37:00,
2013-01-08 15:42:00,40.1,32.2,30.10,SE,132,3.0,3.0,73,0.00,,---,0.00,VWS V14.01,2013-01-08 21:42:00,
2013-01-08 15:47:00,40.0,32.1,30.10,SE,128,2.0,3.0,73,0.00,,---,0.00,VWS V14.01,2013-01-08 21:47:00,
2013-01-08 15:52:00,40.0,32.1,30.10,ESE,120,2.0,3.0,73,0.00,,---,0.00,VWS V14.01,2013-01-08 21:52:00,
2013-01-08 15:57:00,39.8,31.9,30.10,ESE,118,2.0,5.0,73,0.00,,---,0.00,VWS V14.01,2013-01-08 21:57:00,
2013-01-08 16:02:00,39.7,32.1,30.11,ESE,123,2.0,5.0,74,0.00,,---,0.00,VWS V14.01,2013-01-08 22:02:00,
2013-01-08 16:07:00,39.6,32.0,30.11,ESE,119,3.0,3.0,74,0.00,,---,0.00,VWS V14.01,2013-01-08 22:07:00,
2013-01-08 16:12:00,39.6,32.3,30.11,ESE,118,2.0,5.0,75,0.00,,---,0.00,VWS V14.01,2013-01-08 22:12:00,
2013-01-08 16:17:00,39.5,32.2,30.11,ESE,123,2.0,5.0,75,0.00,,---,0.00,VWS V14.01,2013-01-08 22:17:00,
2013-01-08 16:22:00,39.5,32.6,30.11,SE,132,2.0,5.0,76,0.00,,---,0.00,VWS V14.01,2013-01-08 22:22:00,
2013-01-08 16:27:00,39.6,32.3,30.11,SE,137,2.0,5.0,75,0.00,,---,0.00,VWS V14.01,2013-01-08 22:27:00,
2013-01-08 16:32:00,39.6,32.3,30.11,SE,130,1.0,5.0,75,0.00,,---,0.00,VWS V14.01,2013-01-08 22:32:00,
2013-01-08 16:37:00,39.5,32.6,30.11,ESE,120,0.0,4.0,76,0.00,,---,0.00,VWS V14.01,2013-01-08 22:37:00,
2013-01-08 16:42:00,39.5,32.6,30.11,ESE,120,0.0,4.0,76,0.00,,---,0.00,VWS V14.01,2013-01-08 22:42:00,
2013-01-08 16:47:00,39.4,32.5,30.12,ESE,120,0.0,4.0,76,0.00,,---,0.00,VWS V14.01,2013-01-08 22:47:00,
2013-01-08 16:52:00,39.3,32.7,30.12,ESE,120,1.0,4.0,77,0.00,,---,0.00,VWS V14.01,2013-01-08 22:52:00,
2013-01-08 16:57:00,39.4,32.8,30.12,ESE,109,1.0,4.0,77,0.00,,---,0.00,VWS V14.01,2013-01-08 22:57:00,
2013-01-08 17:02:00,39.7,32.8,30.13,ESE,110,0.0,4.0,76,0.00,,---,0.00,VWS V14.01,2013-01-08 23:02:00,
2013-01-08 17:07:00,39.9,33.0,30.13,ESE,120,1.0,3.0,76,0.00,,---,0.00,VWS V14.01,2013-01-08 23:07:00,
2013-01-08 17:12:00,39.9,33.0,30.13,ESE,121,1.0,4.0,76,0.00,,---,0.00,VWS V14.01,2013-01-08 23:12:00,
2013-01-08 17:17:00,39.7,32.8,30.14,ESE,108,0.0,4.0,76,0.00,,---,0.00,VWS V14.01,2013-01-08 23:17:00,
2013-01-08 17:22:00,39.3,32.7,30.14,ESE,118,0.0,4.0,77,0.00,,---,0.00,VWS V14.01,2013-01-08 23:22:00,
2013-01-08 17:27:00,39.0,32.4,30.14,ESE,118,1.0,4.0,77,0.00,,---,0.00,VWS V14.01,2013-01-08 23:27:00,
2013-01-08 17:32:00,38.7,32.4,30.15,SE,130,0.0,4.0,78,0.00,,---,0.00,VWS V14.01,2013-01-08 23:32:00,
2013-01-08 17:37:00,38.2,32.3,30.15,SE,130,1.0,2.0,79,0.00,,---,0.00,VWS V14.01,2013-01-08 23:37:00,
2013-01-08 17:42:00,37.9,32.0,30.15,SE,130,0.0,2.0,79,0.00,,---,0.00,VWS V14.01,2013-01-08 23:42:00,
2013-01-08 17:47:00,37.6,32.0,30.16,ESE,110,0.0,2.0,80,0.00,,---,0.00,VWS V14.01,2013-01-08 23:47:00,
2013-01-08 17:52:00,37.2,31.6,30.16,ESE,110,0.0,2.0,80,0.00,,---,0.00,VWS V14.01,2013-01-08 23:52:00,
2013-01-08 17:57:00,36.9,31.6,30.16,East,101,1.0,2.0,81,0.00,,---,0.00,VWS V14.01,2013-01-08 23:57:00,
2013-01-08 18:02:00,36.6,31.6,30.16,East,90,1.0,3.0,82,0.00,,---,0.00,VWS V14.01,2013-01-09 00:02:00,
2013-01-08 18:07:00,36.4,31.4,30.16,ESE,111,0.0,1.0,82,0.00,,---,0.00,VWS V14.01,2013-01-09 00:07:00,
2013-01-08 18:12:00,36.2,31.5,30.17,ESE,117,0.0,2.0,83,0.00,,---,0.00,VWS V14.01,2013-01-09 00:12:00,
2013-01-08 18:17:00,36.1,31.5,30.17,ESE,108,1.0,5.0,83,0.00,,---,0.00,VWS V14.01,2013-01-09 00:17:00,
2013-01-08 18:22:00,36.0,31.4,30.17,ESE,108,1.0,5.0,83,0.00,,---,0.00,VWS V14.01,2013-01-09 00:22:00,
2013-01-08 18:27:00,35.9,31.2,30.17,East,98,0.0,5.0,83,0.00,,---,0.00,VWS V14.01,2013-01-09 00:27:00,
2013-01-08 18:32:00,35.8,31.1,30.17,East,88,3.0,5.0,83,0.00,,---,0.00,VWS V14.01,2013-01-09 00:32:00,
2013-01-08 18:37:00,35.7,31.0,30.18,East,101,1.0,3.0,83,0.00,,---,0.00,VWS V14.01,2013-01-09 00:37:00,
2013-01-08 18:42:00,35.5,31.1,30.18,ESE,108,1.0,3.0,84,0.00,,---,0.00,VWS V14.01,2013-01-09 00:42:00,
2013-01-08 18:47:00,35.3,31.0,30.18,ESE,103,0.0,3.0,84,0.00,,---,0.00,VWS V14.01,2013-01-09 00:47:00,
2013-01-08 18:52:00,35.1,30.8,30.19,ESE,120,0.0,3.0,84,0.00,,---,0.00,VWS V14.01,2013-01-09 00:52:00,
2013-01-08 18:57:00,35.0,31.0,30.19,SE,126,1.0,3.0,85,0.00,,---,0.00,VWS V14.01,2013-01-09 00:57:00,
2013-01-08 19:02:00,35.0,30.7,30.20,ESE,117,3.0,3.0,84,0.00,,---,0.00,VWS V14.01,2013-01-09 01:02:00,
2013-01-08 19:07:00,35.0,30.7,30.20,SE,126,2.0,3.0,84,0.00,,---,0.00,VWS V14.01,2013-01-09 01:07:00,
2013-01-08 19:12:00,34.9,30.6,30.20,SE,126,0.0,3.0,84,0.00,,---,0.00,VWS V14.01,2013-01-09 01:12:00,
2013-01-08 19:17:00,34.7,30.4,30.20,ESE,119,2.0,3.0,84,0.00,,---,0.00,VWS V14.01,2013-01-09 01:17:00,
2013-01-08 19:22:00,34.7,30.4,30.21,ESE,104,4.0,5.0,84,0.00,,---,0.00,VWS V14.01,2013-01-09 01:22:00,
2013-01-08 19:27:00,34.8,30.5,30.22,ESE,123,1.0,5.0,84,0.00,,---,0.00,VWS V14.01,2013-01-09 01:27:00,
2013-01-08 19:32:00,34.6,30.3,30.22,ESE,123,0.0,5.0,84,0.00,,---,0.00,VWS V14.01,2013-01-09 01:32:00,
2013-01-08 19:37:00,34.5,30.2,30.22,SE,124,1.0,3.0,84,0.00,,---,0.00,VWS V14.01,2013-01-09 01:37:00,
2013-01-08 19:42:00,34.5,30.2,30.23,SE,128,2.0,5.0,84,0.00,,---,0.00,VWS V14.01,2013-01-09 01:42:00,
2013-01-08 19:47:00,34.4,30.1,30.23,ESE,113,2.0,5.0,84,0.00,,---,0.00,VWS V14.01,2013-01-09 01:47:00,
2013-01-08 19:52:00,34.2,29.9,30.23,ESE,120,2.0,5.0,84,0.00,,---,0.00,VWS V14.01,2013-01-09 01:52:00,
2013-01-08 19:57:00,34.0,29.7,30.24,ESE,119,1.0,5.0,84,0.00,,---,0.00,VWS V14.01,2013-01-09 01:57:00,
2013-01-08 20:02:00,33.7,29.4,30.24,ESE,117,1.0,5.0,84,0.00,,---,0.00,VWS V14.01,2013-01-09 02:02:00,
2013-01-08 20:07:00,33.3,29.3,30.24,ESE,120,1.0,2.0,85,0.00,,---,0.00,VWS V14.01,2013-01-09 02:07:00,
2013-01-08 20:12:00,33.2,29.2,30.25,SE,127,1.0,3.0,85,0.00,,---,0.00,VWS V14.01,2013-01-09 02:12:00,
2013-01-08 20:17:00,33.1,29.1,30.25,SE,127,1.0,3.0,85,0.00,,---,0.00,VWS V14.01,2013-01-09 02:17:00,
2013-01-08 20:22:00,32.9,28.9,30.25,SE,127,0.0,3.0,85,0.00,,---,0.00,VWS V14.01,2013-01-09 02:22:00,
2013-01-08 20:27:00,32.7,28.7,30.25,SE,127,0.0,3.0,85,0.00,,---,0.00,VWS V14.01,2013-01-09 02:27:00,
2013-01-08 20:32:00,32.5,28.8,30.25,SE,127,0.0,3.0,86,0.00,,---,0.00,VWS V14.01,2013-01-09 02:32:00,
2013-01-08 20:37:00,32.3,28.6,30.25,SE,127,0.0,0.0,86,0.00,,---,0.00,VWS V14.01,2013-01-09 02:37:00,
2013-01-08 20:42:00,32.1,28.4,30.26,SE,127,0.0,0.0,86,0.00,,---,0.00,VWS V14.01,2013-01-09 02:42:00,
2013-01-08 20:47:00,32.0,28.3,30.26,SE,127,0.0,0.0,86,0.00,,---,0.00,VWS V14.01,2013-01-09 02:47:00,
2013-01-08 20:52:00,31.9,28.2,30.27,SE,127,0.0,0.0,86,0.00,,---,0.00,VWS V14.01,2013-01-09 02:52:00,
2013-01-08 20:57:00,31.6,27.9,30.27,SE,127,0.0,0.0,86,0.00,,---,0.00,VWS V14.01,2013-01-09 02:57:00,
2013-01-08 21:02:00,31.5,27.8,30.28,SE,127,0.0,0.0,86,0.00,,---,0.00,VWS V14.01,2013-01-09 03:02:00,
2013-01-08 21:07:00,31.4,28.0,30.28,SE,127,0.0,0.0,87,0.00,,---,0.00,VWS V14.01,2013-01-09 03:07:00,
2013-01-08 21:12:00,31.4,28.0,30.28,SE,127,0.0,0.0,87,0.00,,---,0.00,VWS V14.01,2013-01-09 03:12:00,
2013-01-08 21:17:00,31.4,27.7,30.28,SE,127,0.0,0.0,86,0.00,,---,0.00,VWS V14.01,2013-01-09 03:17:00,
2013-01-08 21:22:00,31.6,27.9,30.28,SE,127,0.0,0.0,86,0.00,,---,0.00,VWS V14.01,2013-01-09 03:22:00,
2013-01-08 21:27:00,31.6,27.9,30.28,SE,127,0.0,0.0,86,0.00,,---,0.00,VWS V14.01,2013-01-09 03:27:00,
2013-01-08 21:32:00,31.6,27.9,30.29,SE,127,0.0,0.0,86,0.00,,---,0.00,VWS V14.01,2013-01-09 03:32:00,
2013-01-08 21:37:00,31.6,27.9,30.29,SE,127,0.0,0.0,86,0.00,,---,0.00,VWS V14.01,2013-01-09 03:37:00,
2013-01-08 21:42:00,31.6,27.9,30.29,SE,127,0.0,0.0,86,0.00,,---,0.00,VWS V14.01,2013-01-09 03:42:00,
2013-01-08 21:47:00,31.5,27.8,30.29,SE,127,0.0,0.0,86,0.00,,---,0.00,VWS V14.01,2013-01-09 03:47:00,
2013-01-08 21:52:00,31.4,27.7,30.29,SE,127,0.0,0.0,86,0.00,,---,0.00,VWS V14.01,2013-01-09 03:52:00,
2013-01-08 21:57:00,31.3,27.9,30.29,SE,127,0.0,0.0,87,0.00,,---,0.00,VWS V14.01,2013-01-09 03:57:00,
2013-01-08 22:02:00,31.2,27.5,30.30,SE,127,0.0,0.0,86,0.00,,---,0.00,VWS V14.01,2013-01-09 04:02:00,
2013-01-08 22:07:00,31.0,27.6,30.30,SE,127,0.0,0.0,87,0.00,,---,0.00,VWS V14.01,2013-01-09 04:07:00,
2013-01-08 22:12:00,31.0,27.6,30.30,SE,127,0.0,0.0,87,0.00,,---,0.00,VWS V14.01,2013-01-09 04:12:00,
2013-01-08 22:17:00,30.9,27.5,30.31,SE,127,0.0,0.0,87,0.00,,---,0.00,VWS V14.01,2013-01-09 04:17:00,
2013-01-08 22:22:00,30.8,27.4,30.30,SE,127,0.0,0.0,87,0.00,,---,0.00,VWS V14.01,2013-01-09 04:22:00,
2013-01-08 22:27:00,30.7,27.3,30.30,SE,127,0.0,0.0,87,0.00,,---,0.00,VWS V14.01,2013-01-09 04:27:00,
2013-01-08 22:32:00,30.7,27.3,30.31,SE,127,0.0,0.0,87,0.00,,---,0.00,VWS V14.01,2013-01-09 04:32:00,
2013-01-08 22:37:00,30.7,27.3,30.31,SE,127,0.0,0.0,87,0.00,,---,0.00,VWS V14.01,2013-01-09 04:37:00,
2013-01-08 22:42:00,30.4,26.7,30.31,SE,127,0.0,0.0,86,0.00,,---,0.00,VWS V14.01,2013-01-09 04:42:00,
2013-01-08 22:47:00,30.2,26.8,30.32,SE,127,0.0,0.0,87,0.00,,---,0.00,VWS V14.01,2013-01-09 04:47:00,
2013-01-08 22:52:00,30.2,26.8,30.32,SE,127,0.0,0.0,87,0.00,,---,0.00,VWS V14.01,2013-01-09 04:52:00,
2013-01-08 22:57:00,30.2,26.8,30.32,SE,127,0.0,0.0,87,0.00,,---,0.00,VWS V14.01,2013-01-09 04:57:00,
2013-01-08 23:00:00,30.4,27.0,30.33,ESE,123,1.0,2.0,87,0.00,,---,0.00,VWS V14.01,2013-01-09 05:00:00,
2013-01-08 23:03:00,30.5,26.8,30.33,ESE,123,0.0,2.0,86,0.00,,---,0.00,VWS V14.01,2013-01-09 05:03:00,
2013-01-08 23:08:00,30.5,26.8,30.33,ESE,123,1.0,1.0,86,0.00,,---,0.00,VWS V14.01,2013-01-09 05:08:00,
2013-01-08 23:13:00,30.5,26.8,30.33,ESE,123,0.0,1.0,86,0.00,,---,0.00,VWS V14.01,2013-01-09 05:13:00,
2013-01-08 23:18:00,30.5,26.8,30.33,ESE,123,1.0,1.0,86,0.00,,---,0.00,VWS V14.01,2013-01-09 05:18:00,
2013-01-08 23:23:00,30.5,26.5,30.34,ESE,123,0.0,1.0,85,0.00,,---,0.00,VWS V14.01,2013-01-09 05:23:00,
2013-01-08 23:28:00,30.2,26.2,30.34,ESE,123,1.0,1.0,85,0.00,,---,0.00,VWS V14.01,2013-01-09 05:28:00,
2013-01-08 23:33:00,30.0,26.0,30.34,ESE,123,2.0,2.0,85,0.00,,---,0.00,VWS V14.01,2013-01-09 05:33:00,
2013-01-08 23:38:00,30.0,26.0,30.34,SE,125,2.0,4.0,85,0.00,,---,0.00,VWS V14.01,2013-01-09 05:38:00,
2013-01-08 23:43:00,29.9,26.0,30.35,ESE,118,2.0,4.0,85,0.00,,---,0.00,VWS V14.01,2013-01-09 05:43:00,
2013-01-08 23:48:00,29.7,25.5,30.35,ESE,120,1.0,4.0,84,0.00,,---,0.00,VWS V14.01,2013-01-09 05:48:00,
2013-01-08 23:53:00,29.4,25.5,30.35,ESE,119,2.0,4.0,85,0.00,,---,0.00,VWS V14.01,2013-01-09 05:53:00,
2013-01-08 23:58:00,29.1,25.2,30.35,ESE,120,1.0,4.0,85,0.00,,---,0.00,VWS V14.01,2013-01-09 05:58:00,